sensor_id;sensor_type;location;lat;lon;timestamp;P1;durP1;ratioP1;P2;durP2;ratioP2
5638;SDS011;2841;44.526;11.360;2023-05-10T00:00:01;20.20;;;6.83;;
5638;SDS011;2841;44.526;11.360;2023-05-10T00:02:30;9.50;;;6.23;;
5638;SDS011;2841;44.526;11.360;2023-05-10T00:04:57;10.27;;;6.47;;
5638;SDS011;2841;44.526;11.360;2023-05-10T00:07:24;12.60;;;6.73;;
5638;SDS011;2841;44.526;11.360;2023-05-10T00:09:51;8.20;;;5.57;;
5638;SDS011;2841;44.526;11.360;2023-05-10T00:12:18;11.80;;;6.43;;
5638;SDS011;2841;44.526;11.360;2023-05-10T00:14:47;10.53;;;6.30;;
5638;SDS011;2841;44.526;11.360;2023-05-10T00:17:14;8.60;;;6.00;;
5638;SDS011;2841;44.526;11.360;2023-05-10T00:19:41;20.93;;;6.53;;
5638;SDS011;2841;44.526;11.360;2023-05-10T00:22:08;12.73;;;6.37;;
5638;SDS011;2841;44.526;11.360;2023-05-10T00:24:36;20.83;;;6.43;;
5638;SDS011;2841;44.526;11.360;2023-05-10T00:27:03;10.90;;;5.93;;
5638;SDS011;2841;44.526;11.360;2023-05-10T00:29:30;9.27;;;6.87;;
5638;SDS011;2841;44.526;11.360;2023-05-10T00:32:00;8.23;;;5.37;;
5638;SDS011;2841;44.526;11.360;2023-05-10T00:34:27;11.33;;;6.57;;
5638;SDS011;2841;44.526;11.360;2023-05-10T00:36:54;7.97;;;6.03;;
5638;SDS011;2841;44.526;11.360;2023-05-10T00:39:21;11.73;;;6.03;;
5638;SDS011;2841;44.526;11.360;2023-05-10T00:41:48;10.57;;;5.77;;
5638;SDS011;2841;44.526;11.360;2023-05-10T00:44:15;9.03;;;5.73;;
5638;SDS011;2841;44.526;11.360;2023-05-10T00:46:43;6.97;;;5.13;;
5638;SDS011;2841;44.526;11.360;2023-05-10T00:49:12;15.03;;;5.60;;
5638;SDS011;2841;44.526;11.360;2023-05-10T00:51:39;7.33;;;5.20;;
5638;SDS011;2841;44.526;11.360;2023-05-10T00:54:08;12.00;;;5.10;;
5638;SDS011;2841;44.526;11.360;2023-05-10T00:56:35;11.80;;;5.87;;
5638;SDS011;2841;44.526;11.360;2023-05-10T00:59:03;7.20;;;4.67;;
5638;SDS011;2841;44.526;11.360;2023-05-10T01:01:30;7.27;;;4.43;;
5638;SDS011;2841;44.526;11.360;2023-05-10T01:03:58;7.57;;;4.80;;
5638;SDS011;2841;44.526;11.360;2023-05-10T01:06:26;10.47;;;5.40;;
5638;SDS011;2841;44.526;11.360;2023-05-10T01:08:54;6.93;;;4.03;;
5638;SDS011;2841;44.526;11.360;2023-05-10T01:11:21;7.70;;;4.80;;
5638;SDS011;2841;44.526;11.360;2023-05-10T01:13:50;8.40;;;4.67;;
5638;SDS011;2841;44.526;11.360;2023-05-10T01:16:22;9.47;;;5.27;;
5638;SDS011;2841;44.526;11.360;2023-05-10T01:18:49;11.77;;;5.67;;
5638;SDS011;2841;44.526;11.360;2023-05-10T01:21:20;11.03;;;5.70;;
5638;SDS011;2841;44.526;11.360;2023-05-10T01:27:07;10.13;;;5.57;;
5638;SDS011;2841;44.526;11.360;2023-05-10T01:30:01;6.50;;;4.60;;
5638;SDS011;2841;44.526;11.360;2023-05-10T01:32:44;7.50;;;4.53;;
5638;SDS011;2841;44.526;11.360;2023-05-10T01:35:16;8.40;;;5.47;;
5638;SDS011;2841;44.526;11.360;2023-05-10T01:37:50;7.37;;;4.70;;
5638;SDS011;2841;44.526;11.360;2023-05-10T01:40:25;14.03;;;4.90;;
5638;SDS011;2841;44.526;11.360;2023-05-10T01:43:00;7.23;;;4.90;;
5638;SDS011;2841;44.526;11.360;2023-05-10T01:45:30;7.43;;;5.10;;
5638;SDS011;2841;44.526;11.360;2023-05-10T01:48:05;11.30;;;4.13;;
5638;SDS011;2841;44.526;11.360;2023-05-10T01:50:35;11.30;;;4.50;;
5638;SDS011;2841;44.526;11.360;2023-05-10T01:53:06;8.37;;;4.93;;
5638;SDS011;2841;44.526;11.360;2023-05-10T01:55:38;11.60;;;5.40;;
5638;SDS011;2841;44.526;11.360;2023-05-10T01:58:09;6.33;;;4.33;;
5638;SDS011;2841;44.526;11.360;2023-05-10T02:00:40;7.27;;;4.60;;
5638;SDS011;2841;44.526;11.360;2023-05-10T02:03:12;11.33;;;4.40;;
5638;SDS011;2841;44.526;11.360;2023-05-10T02:05:41;10.83;;;4.30;;
5638;SDS011;2841;44.526;11.360;2023-05-10T02:08:09;5.20;;;3.60;;
5638;SDS011;2841;44.526;11.360;2023-05-10T02:10:37;8.10;;;4.30;;
5638;SDS011;2841;44.526;11.360;2023-05-10T02:13:07;8.33;;;3.53;;
5638;SDS011;2841;44.526;11.360;2023-05-10T02:15:35;5.13;;;3.43;;
5638;SDS011;2841;44.526;11.360;2023-05-10T02:18:04;5.03;;;3.57;;
5638;SDS011;2841;44.526;11.360;2023-05-10T02:20:33;18.07;;;3.77;;
5638;SDS011;2841;44.526;11.360;2023-05-10T02:23:02;9.40;;;4.37;;
5638;SDS011;2841;44.526;11.360;2023-05-10T02:25:30;6.07;;;3.63;;
5638;SDS011;2841;44.526;11.360;2023-05-10T02:27:59;7.23;;;3.90;;
5638;SDS011;2841;44.526;11.360;2023-05-10T02:30:29;5.17;;;3.30;;
5638;SDS011;2841;44.526;11.360;2023-05-10T02:32:58;10.10;;;3.60;;
5638;SDS011;2841;44.526;11.360;2023-05-10T02:35:27;7.20;;;4.13;;
5638;SDS011;2841;44.526;11.360;2023-05-10T02:37:56;5.07;;;3.60;;
5638;SDS011;2841;44.526;11.360;2023-05-10T02:40:26;9.17;;;4.03;;
5638;SDS011;2841;44.526;11.360;2023-05-10T02:42:54;6.00;;;4.10;;
5638;SDS011;2841;44.526;11.360;2023-05-10T02:45:24;4.50;;;2.97;;
5638;SDS011;2841;44.526;11.360;2023-05-10T02:47:55;5.40;;;3.83;;
5638;SDS011;2841;44.526;11.360;2023-05-10T02:50:23;6.37;;;3.20;;
5638;SDS011;2841;44.526;11.360;2023-05-10T02:52:54;6.93;;;3.20;;
5638;SDS011;2841;44.526;11.360;2023-05-10T02:55:27;6.13;;;3.20;;
5638;SDS011;2841;44.526;11.360;2023-05-10T02:58:00;8.40;;;3.73;;
5638;SDS011;2841;44.526;11.360;2023-05-10T03:00:28;5.67;;;3.60;;
5638;SDS011;2841;44.526;11.360;2023-05-10T03:02:55;6.50;;;3.63;;
5638;SDS011;2841;44.526;11.360;2023-05-10T03:05:23;8.33;;;3.93;;
5638;SDS011;2841;44.526;11.360;2023-05-10T03:07:50;6.80;;;4.40;;
5638;SDS011;2841;44.526;11.360;2023-05-10T03:10:19;5.13;;;3.57;;
5638;SDS011;2841;44.526;11.360;2023-05-10T03:12:52;13.07;;;4.53;;
5638;SDS011;2841;44.526;11.360;2023-05-10T03:15:31;6.57;;;4.33;;
5638;SDS011;2841;44.526;11.360;2023-05-10T03:18:06;9.73;;;4.10;;
5638;SDS011;2841;44.526;11.360;2023-05-10T03:20:38;13.20;;;3.83;;
5638;SDS011;2841;44.526;11.360;2023-05-10T03:23:11;15.17;;;4.60;;
5638;SDS011;2841;44.526;11.360;2023-05-10T03:25:45;6.17;;;3.90;;
5638;SDS011;2841;44.526;11.360;2023-05-10T03:28:14;6.10;;;4.00;;
5638;SDS011;2841;44.526;11.360;2023-05-10T03:30:43;7.07;;;3.80;;
5638;SDS011;2841;44.526;11.360;2023-05-10T03:33:12;10.77;;;5.07;;
5638;SDS011;2841;44.526;11.360;2023-05-10T03:35:39;9.20;;;4.57;;
5638;SDS011;2841;44.526;11.360;2023-05-10T03:38:06;11.83;;;4.47;;
5638;SDS011;2841;44.526;11.360;2023-05-10T03:40:33;8.17;;;4.27;;
5638;SDS011;2841;44.526;11.360;2023-05-10T03:43:02;7.47;;;4.37;;
5638;SDS011;2841;44.526;11.360;2023-05-10T03:45:29;9.93;;;5.27;;
5638;SDS011;2841;44.526;11.360;2023-05-10T03:47:56;6.70;;;4.00;;
5638;SDS011;2841;44.526;11.360;2023-05-10T03:50:24;8.83;;;4.83;;
5638;SDS011;2841;44.526;11.360;2023-05-10T03:52:52;9.27;;;5.43;;
5638;SDS011;2841;44.526;11.360;2023-05-10T03:55:19;5.50;;;4.63;;
5638;SDS011;2841;44.526;11.360;2023-05-10T03:57:47;8.40;;;4.70;;
5638;SDS011;2841;44.526;11.360;2023-05-10T04:00:17;8.13;;;5.50;;
5638;SDS011;2841;44.526;11.360;2023-05-10T04:02:45;9.53;;;4.63;;
5638;SDS011;2841;44.526;11.360;2023-05-10T04:05:12;8.30;;;4.33;;
5638;SDS011;2841;44.526;11.360;2023-05-10T04:07:40;9.53;;;4.07;;
5638;SDS011;2841;44.526;11.360;2023-05-10T04:10:07;8.00;;;4.33;;
5638;SDS011;2841;44.526;11.360;2023-05-10T04:12:35;7.70;;;4.80;;
5638;SDS011;2841;44.526;11.360;2023-05-10T04:15:02;5.30;;;3.80;;
5638;SDS011;2841;44.526;11.360;2023-05-10T04:17:31;7.10;;;4.70;;
5638;SDS011;2841;44.526;11.360;2023-05-10T04:19:58;6.50;;;4.33;;
5638;SDS011;2841;44.526;11.360;2023-05-10T04:22:25;6.40;;;4.70;;
5638;SDS011;2841;44.526;11.360;2023-05-10T04:24:54;10.73;;;4.27;;
5638;SDS011;2841;44.526;11.360;2023-05-10T04:27:21;7.63;;;4.77;;
5638;SDS011;2841;44.526;11.360;2023-05-10T04:29:48;6.43;;;5.10;;
5638;SDS011;2841;44.526;11.360;2023-05-10T04:32:15;10.40;;;5.10;;
5638;SDS011;2841;44.526;11.360;2023-05-10T04:34:44;8.63;;;4.33;;
5638;SDS011;2841;44.526;11.360;2023-05-10T04:37:11;7.17;;;3.73;;
5638;SDS011;2841;44.526;11.360;2023-05-10T04:39:39;5.03;;;3.47;;
5638;SDS011;2841;44.526;11.360;2023-05-10T04:42:06;13.13;;;5.23;;
5638;SDS011;2841;44.526;11.360;2023-05-10T04:44:33;7.13;;;4.80;;
5638;SDS011;2841;44.526;11.360;2023-05-10T04:47:01;9.40;;;4.20;;
5638;SDS011;2841;44.526;11.360;2023-05-10T04:49:28;8.60;;;3.87;;
5638;SDS011;2841;44.526;11.360;2023-05-10T04:51:57;6.83;;;3.93;;
5638;SDS011;2841;44.526;11.360;2023-05-10T04:54:24;6.67;;;4.10;;
5638;SDS011;2841;44.526;11.360;2023-05-10T04:56:52;6.73;;;4.30;;
5638;SDS011;2841;44.526;11.360;2023-05-10T04:59:19;6.10;;;3.60;;
5638;SDS011;2841;44.526;11.360;2023-05-10T05:01:46;5.50;;;3.83;;
5638;SDS011;2841;44.526;11.360;2023-05-10T05:04:14;6.57;;;3.50;;
5638;SDS011;2841;44.526;11.360;2023-05-10T05:06:41;8.23;;;3.90;;
5638;SDS011;2841;44.526;11.360;2023-05-10T05:09:09;7.33;;;4.20;;
5638;SDS011;2841;44.526;11.360;2023-05-10T05:11:36;6.83;;;3.57;;
5638;SDS011;2841;44.526;11.360;2023-05-10T05:14:05;5.33;;;3.90;;
5638;SDS011;2841;44.526;11.360;2023-05-10T05:16:32;4.80;;;3.53;;
5638;SDS011;2841;44.526;11.360;2023-05-10T05:18:59;10.33;;;3.77;;
5638;SDS011;2841;44.526;11.360;2023-05-10T05:21:27;7.30;;;4.33;;
5638;SDS011;2841;44.526;11.360;2023-05-10T05:23:54;6.67;;;3.60;;
5638;SDS011;2841;44.526;11.360;2023-05-10T05:26:23;4.63;;;3.37;;
5638;SDS011;2841;44.526;11.360;2023-05-10T05:28:50;5.43;;;3.67;;
5638;SDS011;2841;44.526;11.360;2023-05-10T05:31:19;6.80;;;3.90;;
5638;SDS011;2841;44.526;11.360;2023-05-10T05:33:47;6.13;;;3.80;;
5638;SDS011;2841;44.526;11.360;2023-05-10T05:36:14;4.93;;;3.70;;
5638;SDS011;2841;44.526;11.360;2023-05-10T05:38:41;7.17;;;4.27;;
5638;SDS011;2841;44.526;11.360;2023-05-10T05:41:08;7.20;;;3.53;;
5638;SDS011;2841;44.526;11.360;2023-05-10T05:43:37;10.80;;;4.43;;
5638;SDS011;2841;44.526;11.360;2023-05-10T05:46:04;7.57;;;3.90;;
5638;SDS011;2841;44.526;11.360;2023-05-10T05:48:31;6.47;;;3.63;;
5638;SDS011;2841;44.526;11.360;2023-05-10T05:50:59;10.50;;;4.23;;
5638;SDS011;2841;44.526;11.360;2023-05-10T05:53:27;9.53;;;3.43;;
5638;SDS011;2841;44.526;11.360;2023-05-10T05:55:54;14.13;;;3.70;;
5638;SDS011;2841;44.526;11.360;2023-05-10T05:58:22;7.13;;;3.83;;
5638;SDS011;2841;44.526;11.360;2023-05-10T06:00:51;6.53;;;4.30;;
5638;SDS011;2841;44.526;11.360;2023-05-10T06:03:18;8.87;;;4.20;;
5638;SDS011;2841;44.526;11.360;2023-05-10T06:05:46;6.07;;;3.47;;
5638;SDS011;2841;44.526;11.360;2023-05-10T06:08:13;4.20;;;3.13;;
5638;SDS011;2841;44.526;11.360;2023-05-10T06:10:40;5.77;;;4.50;;
5638;SDS011;2841;44.526;11.360;2023-05-10T06:13:08;5.87;;;3.40;;
5638;SDS011;2841;44.526;11.360;2023-05-10T06:15:35;5.70;;;4.17;;
5638;SDS011;2841;44.526;11.360;2023-05-10T06:18:03;8.17;;;4.50;;
5638;SDS011;2841;44.526;11.360;2023-05-10T06:20:31;6.20;;;4.17;;
5638;SDS011;2841;44.526;11.360;2023-05-10T06:22:58;6.03;;;4.57;;
5638;SDS011;2841;44.526;11.360;2023-05-10T06:25:25;46.23;;;6.73;;
5638;SDS011;2841;44.526;11.360;2023-05-10T06:27:53;6.83;;;4.27;;
5638;SDS011;2841;44.526;11.360;2023-05-10T06:30:23;8.70;;;4.70;;
5638;SDS011;2841;44.526;11.360;2023-05-10T06:32:52;4.73;;;3.37;;
5638;SDS011;2841;44.526;11.360;2023-05-10T06:35:21;9.70;;;3.50;;
5638;SDS011;2841;44.526;11.360;2023-05-10T06:37:49;7.20;;;4.13;;
5638;SDS011;2841;44.526;11.360;2023-05-10T06:40:16;6.93;;;3.87;;
5638;SDS011;2841;44.526;11.360;2023-05-10T06:42:44;12.70;;;4.30;;
5638;SDS011;2841;44.526;11.360;2023-05-10T06:45:11;5.93;;;3.63;;
5638;SDS011;2841;44.526;11.360;2023-05-10T06:47:39;7.53;;;4.20;;
5638;SDS011;2841;44.526;11.360;2023-05-10T06:50:06;5.40;;;4.03;;
5638;SDS011;2841;44.526;11.360;2023-05-10T06:52:40;6.83;;;4.37;;
5638;SDS011;2841;44.526;11.360;2023-05-10T06:55:14;7.47;;;4.50;;
5638;SDS011;2841;44.526;11.360;2023-05-10T06:57:42;8.30;;;3.60;;
5638;SDS011;2841;44.526;11.360;2023-05-10T07:00:09;6.50;;;3.80;;
5638;SDS011;2841;44.526;11.360;2023-05-10T07:02:36;5.30;;;3.47;;
5638;SDS011;2841;44.526;11.360;2023-05-10T07:05:04;15.50;;;4.00;;
5638;SDS011;2841;44.526;11.360;2023-05-10T07:07:32;8.73;;;4.23;;
5638;SDS011;2841;44.526;11.360;2023-05-10T07:10:01;5.70;;;3.90;;
5638;SDS011;2841;44.526;11.360;2023-05-10T07:12:29;4.80;;;3.50;;
5638;SDS011;2841;44.526;11.360;2023-05-10T07:14:56;6.73;;;4.20;;
5638;SDS011;2841;44.526;11.360;2023-05-10T07:17:23;8.00;;;4.27;;
5638;SDS011;2841;44.526;11.360;2023-05-10T07:19:51;7.23;;;4.50;;
5638;SDS011;2841;44.526;11.360;2023-05-10T07:22:18;12.97;;;3.77;;
5638;SDS011;2841;44.526;11.360;2023-05-10T07:24:45;5.77;;;3.73;;
5638;SDS011;2841;44.526;11.360;2023-05-10T07:27:13;5.60;;;4.00;;
5638;SDS011;2841;44.526;11.360;2023-05-10T07:29:40;7.40;;;3.77;;
5638;SDS011;2841;44.526;11.360;2023-05-10T07:32:08;5.30;;;3.67;;
5638;SDS011;2841;44.526;11.360;2023-05-10T07:34:35;5.83;;;4.10;;
5638;SDS011;2841;44.526;11.360;2023-05-10T07:37:02;8.60;;;3.60;;
5638;SDS011;2841;44.526;11.360;2023-05-10T07:39:29;4.73;;;3.70;;
5638;SDS011;2841;44.526;11.360;2023-05-10T07:41:56;6.57;;;4.07;;
5638;SDS011;2841;44.526;11.360;2023-05-10T07:44:25;6.13;;;3.20;;
5638;SDS011;2841;44.526;11.360;2023-05-10T07:46:52;5.97;;;3.30;;
5638;SDS011;2841;44.526;11.360;2023-05-10T07:49:19;5.90;;;3.67;;
5638;SDS011;2841;44.526;11.360;2023-05-10T07:51:46;12.03;;;3.70;;
5638;SDS011;2841;44.526;11.360;2023-05-10T07:54:14;5.43;;;3.40;;
5638;SDS011;2841;44.526;11.360;2023-05-10T07:56:41;6.13;;;4.33;;
5638;SDS011;2841;44.526;11.360;2023-05-10T07:59:14;9.00;;;2.77;;
5638;SDS011;2841;44.526;11.360;2023-05-10T08:01:43;8.67;;;3.57;;
5638;SDS011;2841;44.526;11.360;2023-05-10T08:04:11;5.97;;;2.83;;
5638;SDS011;2841;44.526;11.360;2023-05-10T08:06:38;5.93;;;3.40;;
5638;SDS011;2841;44.526;11.360;2023-05-10T08:09:06;7.60;;;3.23;;
5638;SDS011;2841;44.526;11.360;2023-05-10T08:11:33;4.67;;;3.23;;
5638;SDS011;2841;44.526;11.360;2023-05-10T08:14:00;4.80;;;3.60;;
5638;SDS011;2841;44.526;11.360;2023-05-10T08:16:27;4.00;;;2.90;;
5638;SDS011;2841;44.526;11.360;2023-05-10T08:18:56;6.30;;;3.43;;
5638;SDS011;2841;44.526;11.360;2023-05-10T08:21:23;8.90;;;3.87;;
5638;SDS011;2841;44.526;11.360;2023-05-10T08:23:51;7.60;;;3.70;;
5638;SDS011;2841;44.526;11.360;2023-05-10T08:26:18;7.40;;;3.30;;
5638;SDS011;2841;44.526;11.360;2023-05-10T08:28:46;6.47;;;3.90;;
5638;SDS011;2841;44.526;11.360;2023-05-10T08:31:13;6.27;;;3.97;;
5638;SDS011;2841;44.526;11.360;2023-05-10T08:33:40;10.07;;;4.50;;
5638;SDS011;2841;44.526;11.360;2023-05-10T08:36:09;6.67;;;3.60;;
5638;SDS011;2841;44.526;11.360;2023-05-10T08:38:39;8.80;;;4.10;;
5638;SDS011;2841;44.526;11.360;2023-05-10T08:41:06;5.23;;;4.03;;
5638;SDS011;2841;44.526;11.360;2023-05-10T08:43:33;7.50;;;3.97;;
5638;SDS011;2841;44.526;11.360;2023-05-10T08:46:03;5.57;;;4.40;;
5638;SDS011;2841;44.526;11.360;2023-05-10T08:51:01;11.53;;;4.33;;
5638;SDS011;2841;44.526;11.360;2023-05-10T08:53:31;6.33;;;4.77;;
5638;SDS011;2841;44.526;11.360;2023-05-10T08:56:01;7.47;;;4.27;;
5638;SDS011;2841;44.526;11.360;2023-05-10T08:58:29;16.00;;;4.63;;
5638;SDS011;2841;44.526;11.360;2023-05-10T09:00:57;6.10;;;4.60;;
5638;SDS011;2841;44.526;11.360;2023-05-10T09:03:25;8.00;;;4.53;;
5638;SDS011;2841;44.526;11.360;2023-05-10T09:05:52;8.03;;;4.93;;
5638;SDS011;2841;44.526;11.360;2023-05-10T09:08:21;9.40;;;4.33;;
5638;SDS011;2841;44.526;11.360;2023-05-10T09:10:52;6.53;;;4.40;;
5638;SDS011;2841;44.526;11.360;2023-05-10T09:13:20;8.17;;;4.10;;
5638;SDS011;2841;44.526;11.360;2023-05-10T09:15:48;7.03;;;4.47;;
5638;SDS011;2841;44.526;11.360;2023-05-10T09:18:16;10.53;;;4.00;;
5638;SDS011;2841;44.526;11.360;2023-05-10T09:20:43;7.27;;;4.47;;
5638;SDS011;2841;44.526;11.360;2023-05-10T09:23:11;5.93;;;3.70;;
5638;SDS011;2841;44.526;11.360;2023-05-10T09:25:38;7.13;;;4.20;;
5638;SDS011;2841;44.526;11.360;2023-05-10T09:28:08;6.73;;;4.03;;
5638;SDS011;2841;44.526;11.360;2023-05-10T09:30:36;5.40;;;3.80;;
5638;SDS011;2841;44.526;11.360;2023-05-10T09:33:03;5.00;;;3.90;;
5638;SDS011;2841;44.526;11.360;2023-05-10T09:35:31;7.20;;;4.00;;
5638;SDS011;2841;44.526;11.360;2023-05-10T09:37:59;8.40;;;5.40;;
5638;SDS011;2841;44.526;11.360;2023-05-10T09:40:29;9.67;;;4.40;;
5638;SDS011;2841;44.526;11.360;2023-05-10T09:42:57;5.47;;;4.17;;
5638;SDS011;2841;44.526;11.360;2023-05-10T09:45:27;7.00;;;4.17;;
5638;SDS011;2841;44.526;11.360;2023-05-10T09:47:55;4.47;;;3.40;;
5638;SDS011;2841;44.526;11.360;2023-05-10T09:50:22;6.10;;;4.30;;
5638;SDS011;2841;44.526;11.360;2023-05-10T09:52:50;5.00;;;3.70;;
5638;SDS011;2841;44.526;11.360;2023-05-10T09:55:19;5.40;;;3.40;;
5638;SDS011;2841;44.526;11.360;2023-05-10T09:57:47;4.87;;;2.73;;
5638;SDS011;2841;44.526;11.360;2023-05-10T10:00:16;4.90;;;3.50;;
5638;SDS011;2841;44.526;11.360;2023-05-10T10:02:47;5.40;;;3.53;;
5638;SDS011;2841;44.526;11.360;2023-05-10T10:05:14;6.87;;;4.10;;
5638;SDS011;2841;44.526;11.360;2023-05-10T10:07:41;10.13;;;4.90;;
5638;SDS011;2841;44.526;11.360;2023-05-10T10:10:09;6.07;;;4.07;;
5638;SDS011;2841;44.526;11.360;2023-05-10T10:12:38;5.90;;;3.40;;
5638;SDS011;2841;44.526;11.360;2023-05-10T10:15:07;5.17;;;2.60;;
5638;SDS011;2841;44.526;11.360;2023-05-10T10:17:35;4.77;;;2.80;;
5638;SDS011;2841;44.526;11.360;2023-05-10T10:20:06;9.70;;;3.70;;
5638;SDS011;2841;44.526;11.360;2023-05-10T10:22:34;5.50;;;3.20;;
5638;SDS011;2841;44.526;11.360;2023-05-10T10:25:03;3.33;;;2.50;;
5638;SDS011;2841;44.526;11.360;2023-05-10T10:27:33;3.53;;;2.40;;
5638;SDS011;2841;44.526;11.360;2023-05-10T10:30:10;4.30;;;3.20;;
5638;SDS011;2841;44.526;11.360;2023-05-10T10:32:54;5.93;;;3.73;;
5638;SDS011;2841;44.526;11.360;2023-05-10T10:35:35;5.90;;;3.70;;
5638;SDS011;2841;44.526;11.360;2023-05-10T10:38:02;6.23;;;3.67;;
5638;SDS011;2841;44.526;11.360;2023-05-10T10:40:30;9.30;;;4.47;;
5638;SDS011;2841;44.526;11.360;2023-05-10T10:42:59;6.07;;;3.40;;
5638;SDS011;2841;44.526;11.360;2023-05-10T10:48:38;6.97;;;4.00;;
5638;SDS011;2841;44.526;11.360;2023-05-10T10:51:07;4.93;;;3.67;;
5638;SDS011;2841;44.526;11.360;2023-05-10T10:53:36;5.57;;;2.97;;
5638;SDS011;2841;44.526;11.360;2023-05-10T10:56:05;5.27;;;3.30;;
5638;SDS011;2841;44.526;11.360;2023-05-10T10:58:34;4.90;;;2.57;;
5638;SDS011;2841;44.526;11.360;2023-05-10T11:01:12;4.50;;;3.20;;
5638;SDS011;2841;44.526;11.360;2023-05-10T11:03:41;8.37;;;3.03;;
5638;SDS011;2841;44.526;11.360;2023-05-10T11:06:29;4.70;;;2.83;;
5638;SDS011;2841;44.526;11.360;2023-05-10T11:08:59;8.90;;;3.47;;
5638;SDS011;2841;44.526;11.360;2023-05-10T11:11:31;4.80;;;3.50;;
5638;SDS011;2841;44.526;11.360;2023-05-10T11:14:02;6.17;;;4.20;;
5638;SDS011;2841;44.526;11.360;2023-05-10T11:16:40;12.67;;;4.03;;
5638;SDS011;2841;44.526;11.360;2023-05-10T11:19:10;8.67;;;4.23;;
5638;SDS011;2841;44.526;11.360;2023-05-10T11:21:46;7.37;;;4.53;;
5638;SDS011;2841;44.526;11.360;2023-05-10T11:24:15;14.93;;;4.20;;
5638;SDS011;2841;44.526;11.360;2023-05-10T11:26:43;6.13;;;4.07;;
5638;SDS011;2841;44.526;11.360;2023-05-10T11:29:12;5.60;;;3.93;;
5638;SDS011;2841;44.526;11.360;2023-05-10T11:31:42;10.87;;;5.17;;
5638;SDS011;2841;44.526;11.360;2023-05-10T11:34:10;7.93;;;4.97;;
5638;SDS011;2841;44.526;11.360;2023-05-10T11:36:39;6.07;;;3.80;;
5638;SDS011;2841;44.526;11.360;2023-05-10T11:39:08;5.80;;;4.03;;
5638;SDS011;2841;44.526;11.360;2023-05-10T11:41:36;11.47;;;4.23;;
5638;SDS011;2841;44.526;11.360;2023-05-10T11:44:04;5.23;;;3.63;;
5638;SDS011;2841;44.526;11.360;2023-05-10T11:46:31;5.43;;;3.60;;
5638;SDS011;2841;44.526;11.360;2023-05-10T11:48:59;6.77;;;3.60;;
5638;SDS011;2841;44.526;11.360;2023-05-10T11:51:29;6.47;;;4.00;;
5638;SDS011;2841;44.526;11.360;2023-05-10T11:54:00;8.63;;;3.90;;
5638;SDS011;2841;44.526;11.360;2023-05-10T11:56:33;5.40;;;3.63;;
5638;SDS011;2841;44.526;11.360;2023-05-10T11:59:03;9.27;;;3.90;;
5638;SDS011;2841;44.526;11.360;2023-05-10T12:01:39;7.20;;;4.00;;
5638;SDS011;2841;44.526;11.360;2023-05-10T12:04:07;5.23;;;3.27;;
5638;SDS011;2841;44.526;11.360;2023-05-10T12:06:37;4.97;;;3.80;;
5638;SDS011;2841;44.526;11.360;2023-05-10T12:09:06;6.60;;;4.13;;
5638;SDS011;2841;44.526;11.360;2023-05-10T12:11:37;7.70;;;4.10;;
5638;SDS011;2841;44.526;11.360;2023-05-10T12:14:06;6.13;;;4.30;;
5638;SDS011;2841;44.526;11.360;2023-05-10T12:16:35;6.60;;;3.63;;
5638;SDS011;2841;44.526;11.360;2023-05-10T12:19:02;5.13;;;3.70;;
5638;SDS011;2841;44.526;11.360;2023-05-10T12:21:30;5.87;;;3.67;;
5638;SDS011;2841;44.526;11.360;2023-05-10T12:23:59;4.67;;;3.50;;
5638;SDS011;2841;44.526;11.360;2023-05-10T12:26:27;5.90;;;3.93;;
5638;SDS011;2841;44.526;11.360;2023-05-10T12:29:11;5.97;;;3.67;;
5638;SDS011;2841;44.526;11.360;2023-05-10T12:31:48;6.30;;;3.97;;
5638;SDS011;2841;44.526;11.360;2023-05-10T12:34:25;6.77;;;3.10;;
5638;SDS011;2841;44.526;11.360;2023-05-10T12:36:53;5.13;;;2.73;;
5638;SDS011;2841;44.526;11.360;2023-05-10T12:39:20;4.73;;;2.80;;
5638;SDS011;2841;44.526;11.360;2023-05-10T12:41:47;6.23;;;3.90;;
5638;SDS011;2841;44.526;11.360;2023-05-10T12:44:16;6.10;;;4.03;;
5638;SDS011;2841;44.526;11.360;2023-05-10T12:46:43;7.70;;;3.50;;
5638;SDS011;2841;44.526;11.360;2023-05-10T12:49:10;4.90;;;3.20;;
5638;SDS011;2841;44.526;11.360;2023-05-10T12:51:38;8.90;;;4.13;;
5638;SDS011;2841;44.526;11.360;2023-05-10T12:54:05;7.87;;;4.47;;
5638;SDS011;2841;44.526;11.360;2023-05-10T12:56:32;7.87;;;4.87;;
5638;SDS011;2841;44.526;11.360;2023-05-10T12:58:59;7.20;;;3.60;;
5638;SDS011;2841;44.526;11.360;2023-05-10T13:01:27;5.70;;;3.57;;
5638;SDS011;2841;44.526;11.360;2023-05-10T13:03:55;4.87;;;3.33;;
5638;SDS011;2841;44.526;11.360;2023-05-10T13:06:22;5.63;;;3.60;;
5638;SDS011;2841;44.526;11.360;2023-05-10T13:08:49;6.93;;;3.23;;
5638;SDS011;2841;44.526;11.360;2023-05-10T13:11:17;4.13;;;2.63;;
5638;SDS011;2841;44.526;11.360;2023-05-10T13:13:45;5.10;;;2.63;;
5638;SDS011;2841;44.526;11.360;2023-05-10T13:16:12;5.40;;;2.73;;
5638;SDS011;2841;44.526;11.360;2023-05-10T13:18:40;3.43;;;2.33;;
5638;SDS011;2841;44.526;11.360;2023-05-10T13:21:08;8.83;;;2.63;;
5638;SDS011;2841;44.526;11.360;2023-05-10T13:23:36;7.57;;;3.90;;
5638;SDS011;2841;44.526;11.360;2023-05-10T13:26:03;5.57;;;3.70;;
5638;SDS011;2841;44.526;11.360;2023-05-10T13:28:30;5.90;;;3.40;;
5638;SDS011;2841;44.526;11.360;2023-05-10T13:30:57;5.90;;;3.67;;
5638;SDS011;2841;44.526;11.360;2023-05-10T13:33:25;6.87;;;4.17;;
5638;SDS011;2841;44.526;11.360;2023-05-10T13:35:53;6.10;;;3.87;;
5638;SDS011;2841;44.526;11.360;2023-05-10T13:38:20;10.93;;;3.63;;
5638;SDS011;2841;44.526;11.360;2023-05-10T13:40:47;8.40;;;3.60;;
5638;SDS011;2841;44.526;11.360;2023-05-10T13:43:17;4.23;;;3.00;;
5638;SDS011;2841;44.526;11.360;2023-05-10T13:45:44;6.80;;;3.87;;
5638;SDS011;2841;44.526;11.360;2023-05-10T13:48:11;8.03;;;4.13;;
5638;SDS011;2841;44.526;11.360;2023-05-10T13:50:38;8.03;;;4.30;;
5638;SDS011;2841;44.526;11.360;2023-05-10T13:53:07;6.20;;;3.80;;
5638;SDS011;2841;44.526;11.360;2023-05-10T13:55:34;9.37;;;3.87;;
5638;SDS011;2841;44.526;11.360;2023-05-10T13:58:01;7.70;;;4.20;;
5638;SDS011;2841;44.526;11.360;2023-05-10T14:00:29;6.17;;;3.80;;
5638;SDS011;2841;44.526;11.360;2023-05-10T14:02:56;12.00;;;3.10;;
5638;SDS011;2841;44.526;11.360;2023-05-10T14:05:23;4.97;;;3.27;;
5638;SDS011;2841;44.526;11.360;2023-05-10T14:07:50;5.90;;;4.17;;
5638;SDS011;2841;44.526;11.360;2023-05-10T14:10:19;8.13;;;3.37;;
5638;SDS011;2841;44.526;11.360;2023-05-10T14:12:46;7.93;;;3.63;;
5638;SDS011;2841;44.526;11.360;2023-05-10T14:15:13;4.13;;;2.73;;
5638;SDS011;2841;44.526;11.360;2023-05-10T14:17:40;5.80;;;3.77;;
5638;SDS011;2841;44.526;11.360;2023-05-10T14:20:08;6.90;;;4.10;;
5638;SDS011;2841;44.526;11.360;2023-05-10T14:22:36;6.40;;;3.60;;
5638;SDS011;2841;44.526;11.360;2023-05-10T14:25:03;5.70;;;4.77;;
5638;SDS011;2841;44.526;11.360;2023-05-10T14:27:32;8.77;;;3.90;;
5638;SDS011;2841;44.526;11.360;2023-05-10T14:29:59;6.13;;;3.80;;
5638;SDS011;2841;44.526;11.360;2023-05-10T14:32:27;10.30;;;3.40;;
5638;SDS011;2841;44.526;11.360;2023-05-10T14:34:54;6.30;;;4.30;;
5638;SDS011;2841;44.526;11.360;2023-05-10T14:37:21;4.20;;;2.90;;
5638;SDS011;2841;44.526;11.360;2023-05-10T14:39:56;5.97;;;4.20;;
5638;SDS011;2841;44.526;11.360;2023-05-10T14:42:23;4.60;;;3.17;;
5638;SDS011;2841;44.526;11.360;2023-05-10T14:44:52;5.00;;;3.90;;
5638;SDS011;2841;44.526;11.360;2023-05-10T14:47:19;6.23;;;4.00;;
5638;SDS011;2841;44.526;11.360;2023-05-10T14:49:46;5.73;;;4.20;;
5638;SDS011;2841;44.526;11.360;2023-05-10T14:52:13;6.07;;;4.03;;
5638;SDS011;2841;44.526;11.360;2023-05-10T14:54:41;9.07;;;4.47;;
5638;SDS011;2841;44.526;11.360;2023-05-10T14:57:08;4.97;;;4.20;;
5638;SDS011;2841;44.526;11.360;2023-05-10T14:59:35;8.20;;;5.23;;
5638;SDS011;2841;44.526;11.360;2023-05-10T15:02:04;7.00;;;4.27;;
5638;SDS011;2841;44.526;11.360;2023-05-10T15:04:33;5.57;;;4.50;;
5638;SDS011;2841;44.526;11.360;2023-05-10T15:07:03;4.93;;;3.73;;
5638;SDS011;2841;44.526;11.360;2023-05-10T15:09:32;7.97;;;4.70;;
5638;SDS011;2841;44.526;11.360;2023-05-10T15:11:59;6.70;;;4.10;;
5638;SDS011;2841;44.526;11.360;2023-05-10T15:14:26;8.77;;;5.00;;
5638;SDS011;2841;44.526;11.360;2023-05-10T15:16:53;6.80;;;4.40;;